sensor_id;sensor_type;location;lat;lon;timestamp;pressure;altitude;pressure_sealevel;temperature;humidity
69247;BME280;56358;56.328;43.992;2024-03-17T00:00:18;101257.09;;;0.09;54.92
69247;BME280;56358;56.328;43.992;2024-03-17T00:02:19;101251.16;;;-0.01;54.72
69247;BME280;56358;56.328;43.992;2024-03-17T00:04:19;101261.47;;;0.10;54.80
69247;BME280;56358;56.328;43.992;2024-03-17T00:06:20;101271.13;;;0.09;54.98
69247;BME280;56358;56.328;43.992;2024-03-17T00:08:21;101241.59;;;-0.05;54.99
69247;BME280;56358;56.328;43.992;2024-03-17T00:10:21;101252.72;;;0.08;55.12
69247;BME280;56358;56.328;43.992;2024-03-17T00:12:22;101224.88;;;-0.06;55.33
69247;BME280;56358;56.328;43.992;2024-03-17T00:14:23;101236.22;;;-0.02;55.35
69247;BME280;56358;56.328;43.992;2024-03-17T00:16:23;101237.03;;;0.02;55.21
69247;BME280;56358;56.328;43.992;2024-03-17T00:18:24;101223.16;;;-0.08;55.41
69247;BME280;56358;56.328;43.992;2024-03-17T00:20:26;101216.41;;;-0.20;55.39
69247;BME280;56358;56.328;43.992;2024-03-17T00:22:28;101238.09;;;-0.07;55.68
69247;BME280;56358;56.328;43.992;2024-03-17T00:24:29;101226.16;;;-0.24;55.79
69247;BME280;56358;56.328;43.992;2024-03-17T00:26:35;101213.91;;;-0.26;56.07
69247;BME280;56358;56.328;43.992;2024-03-17T00:28:36;101244.44;;;-0.18;56.21
69247;BME280;56358;56.328;43.992;2024-03-17T00:30:37;101220.00;;;-0.23;56.62
69247;BME280;56358;56.328;43.992;2024-03-17T00:32:38;101235.72;;;-0.20;56.42
69247;BME280;56358;56.328;43.992;2024-03-17T00:34:39;101181.81;;;-0.45;56.29
69247;BME280;56358;56.328;43.992;2024-03-17T00:36:39;101220.09;;;-0.29;56.32
69247;BME280;56358;56.328;43.992;2024-03-17T00:38:40;101243.66;;;-0.21;56.75
69247;BME280;56358;56.328;43.992;2024-03-17T00:40:41;101242.81;;;-0.23;56.62
69247;BME280;56358;56.328;43.992;2024-03-17T00:42:42;101238.47;;;-0.26;56.65
69247;BME280;56358;56.328;43.992;2024-03-17T00:44:43;101200.44;;;-0.55;56.81
69247;BME280;56358;56.328;43.992;2024-03-17T00:46:45;101165.56;;;-0.68;56.88
69247;BME280;56358;56.328;43.992;2024-03-17T00:48:48;101233.34;;;-0.32;57.12
69247;BME280;56358;56.328;43.992;2024-03-17T00:50:55;101238.63;;;-0.34;56.88
69247;BME280;56358;56.328;43.992;2024-03-17T00:52:56;101230.72;;;-0.32;57.05
69247;BME280;56358;56.328;43.992;2024-03-17T00:54:57;101124.06;;;-0.98;57.14
69247;BME280;56358;56.328;43.992;2024-03-17T00:56:58;101228.97;;;-0.33;57.15
69247;BME280;56358;56.328;43.992;2024-03-17T00:58:58;101237.69;;;-0.29;57.02
69247;BME280;56358;56.328;43.992;2024-03-17T01:00:59;101237.75;;;-0.32;56.93
69247;BME280;56358;56.328;43.992;2024-03-17T01:03:00;101236.00;;;-0.32;57.37
69247;BME280;56358;56.328;43.992;2024-03-17T01:05:00;101120.63;;;-1.02;57.44
69247;BME280;56358;56.328;43.992;2024-03-17T01:07:01;101236.97;;;-0.36;57.46
69247;BME280;56358;56.328;43.992;2024-03-17T01:09:02;101213.47;;;-0.48;57.25
69247;BME280;56358;56.328;43.992;2024-03-17T01:11:03;101217.00;;;-0.48;57.37
69247;BME280;56358;56.328;43.992;2024-03-17T01:13:05;101072.06;;;-1.31;57.17
69247;BME280;56358;56.328;43.992;2024-03-17T01:15:06;101226.38;;;-0.35;57.25
69247;BME280;56358;56.328;43.992;2024-03-17T01:17:08;101145.84;;;-0.90;57.23
69247;BME280;56358;56.328;43.992;2024-03-17T01:19:08;101228.13;;;-0.35;57.18
69247;BME280;56358;56.328;43.992;2024-03-17T01:21:09;101223.94;;;-0.44;57.34
69247;BME280;56358;56.328;43.992;2024-03-17T01:23:10;101225.69;;;-0.43;57.33
69247;BME280;56358;56.328;43.992;2024-03-17T01:25:11;101133.56;;;-0.90;57.32
69247;BME280;56358;56.328;43.992;2024-03-17T01:27:11;101225.50;;;-0.35;57.59
69247;BME280;56358;56.328;43.992;2024-03-17T01:29:15;101213.34;;;-0.42;57.60
69247;BME280;56358;56.328;43.992;2024-03-17T01:31:15;101229.00;;;-0.35;57.80
69247;BME280;56358;56.328;43.992;2024-03-17T01:33:16;101146.75;;;-0.93;58.49
69247;BME280;56358;56.328;43.992;2024-03-17T01:35:17;101146.75;;;-0.93;57.75
69247;BME280;56358;56.328;43.992;2024-03-17T01:37:18;101227.41;;;-0.43;58.46
69247;BME280;56358;56.328;43.992;2024-03-17T01:39:19;101228.41;;;-0.49;58.66
69247;BME280;56358;56.328;43.992;2024-03-17T01:41:21;101228.72;;;-0.63;59.45
69247;BME280;56358;56.328;43.992;2024-03-17T01:43:22;101240.31;;;-0.73;60.22
69247;BME280;56358;56.328;43.992;2024-03-17T01:45:30;101227.38;;;-0.86;60.37
69247;BME280;56358;56.328;43.992;2024-03-17T01:47:34;101146.81;;;-1.43;61.62
69247;BME280;56358;56.328;43.992;2024-03-17T01:49:35;101217.34;;;-1.13;62.23
69247;BME280;56358;56.328;43.992;2024-03-17T01:51:36;101220.94;;;-1.19;62.64
69247;BME280;56358;56.328;43.992;2024-03-17T01:53:39;101213.22;;;-1.28;63.22
69247;BME280;56358;56.328;43.992;2024-03-17T01:55:41;101226.31;;;-1.25;63.58
69247;BME280;56358;56.328;43.992;2024-03-17T01:57:42;101213.38;;;-1.38;63.46
69247;BME280;56358;56.328;43.992;2024-03-17T01:59:44;101205.50;;;-1.41;63.03
69247;BME280;56358;56.328;43.992;2024-03-17T02:01:45;101152.78;;;-1.86;63.82
69247;BME280;56358;56.328;43.992;2024-03-17T02:03:46;101187.38;;;-1.58;63.95
69247;BME280;56358;56.328;43.992;2024-03-17T02:05:46;101113.69;;;-2.06;64.40
69247;BME280;56358;56.328;43.992;2024-03-17T02:07:48;101215.28;;;-1.49;64.94
69247;BME280;56358;56.328;43.992;2024-03-17T02:09:48;101213.63;;;-1.55;64.80
69247;BME280;56358;56.328;43.992;2024-03-17T02:11:49;101212.75;;;-1.54;65.08
69247;BME280;56358;56.328;43.992;2024-03-17T02:13:50;101217.94;;;-1.50;65.23
69247;BME280;56358;56.328;43.992;2024-03-17T02:15:51;101211.91;;;-1.57;65.46
69247;BME280;56358;56.328;43.992;2024-03-17T02:17:52;101217.06;;;-1.49;64.99
69247;BME280;56358;56.328;43.992;2024-03-17T02:19:52;101199.66;;;-1.58;64.98
69247;BME280;56358;56.328;43.992;2024-03-17T02:21:53;101184.13;;;-1.74;65.03
69247;BME280;56358;56.328;43.992;2024-03-17T02:23:54;101187.75;;;-1.79;65.71
69247;BME280;56358;56.328;43.992;2024-03-17T02:25:55;101200.63;;;-1.64;65.25
69247;BME280;56358;56.328;43.992;2024-03-17T02:27:56;101184.22;;;-1.80;64.86
69247;BME280;56358;56.328;43.992;2024-03-17T02:29:56;101206.88;;;-1.71;65.02
69247;BME280;56358;56.328;43.992;2024-03-17T02:31:57;101094.97;;;-2.44;65.35
69247;BME280;56358;56.328;43.992;2024-03-17T02:33:57;101226.28;;;-1.80;65.90
69247;BME280;56358;56.328;43.992;2024-03-17T02:35:58;101215.81;;;-1.83;65.56
69247;BME280;56358;56.328;43.992;2024-03-17T02:37:59;101155.00;;;-2.17;65.65
69247;BME280;56358;56.328;43.992;2024-03-17T02:40:00;101196.75;;;-1.97;65.29
69247;BME280;56358;56.328;43.992;2024-03-17T02:42:05;101228.22;;;-1.94;65.85
69247;BME280;56358;56.328;43.992;2024-03-17T02:44:06;101224.81;;;-1.98;65.41
69247;BME280;56358;56.328;43.992;2024-03-17T02:46:13;101206.59;;;-2.13;65.47
69247;BME280;56358;56.328;43.992;2024-03-17T02:48:14;101207.31;;;-2.00;65.89
69247;BME280;56358;56.328;43.992;2024-03-17T02:50:16;101200.38;;;-2.05;65.79
69247;BME280;56358;56.328;43.992;2024-03-17T02:52:16;101197.66;;;-2.00;65.63
69247;BME280;56358;56.328;43.992;2024-03-17T02:54:17;101176.06;;;-2.21;65.73
69247;BME280;56358;56.328;43.992;2024-03-17T02:56:18;101188.28;;;-2.18;65.75
69247;BME280;56358;56.328;43.992;2024-03-17T02:58:19;101173.50;;;-2.24;66.21
69247;BME280;56358;56.328;43.992;2024-03-17T03:00:20;101179.53;;;-2.20;65.67
69247;BME280;56358;56.328;43.992;2024-03-17T03:02:22;101205.63;;;-2.08;65.65
69247;BME280;56358;56.328;43.992;2024-03-17T03:04:22;101193.53;;;-2.18;65.60
69247;BME280;56358;56.328;43.992;2024-03-17T03:06:23;101196.03;;;-2.09;65.69
69247;BME280;56358;56.328;43.992;2024-03-17T03:08:25;101189.91;;;-2.09;65.87
69247;BME280;56358;56.328;43.992;2024-03-17T03:10:26;101189.09;;;-2.13;66.15
69247;BME280;56358;56.328;43.992;2024-03-17T03:12:26;101184.69;;;-2.12;66.02
69247;BME280;56358;56.328;43.992;2024-03-17T03:14:27;101188.25;;;-2.15;66.43
69247;BME280;56358;56.328;43.992;2024-03-17T03:16:28;101158.78;;;-2.37;66.52
69247;BME280;56358;56.328;43.992;2024-03-17T03:18:28;101179.66;;;-2.26;66.52
69247;BME280;56358;56.328;43.992;2024-03-17T03:20:29;101137.78;;;-2.40;66.27
69247;BME280;56358;56.328;43.992;2024-03-17T03:22:30;101175.38;;;-2.35;66.56
69247;BME280;56358;56.328;43.992;2024-03-17T03:24:31;101187.53;;;-2.28;66.77
69247;BME280;56358;56.328;43.992;2024-03-17T03:26:33;101072.81;;;-2.90;66.87
69247;BME280;56358;56.328;43.992;2024-03-17T03:28:33;101088.41;;;-2.76;66.19
69247;BME280;56358;56.328;43.992;2024-03-17T03:30:38;101174.38;;;-2.28;65.95
69247;BME280;56358;56.328;43.992;2024-03-17T03:32:39;101168.34;;;-2.34;66.26
69247;BME280;56358;56.328;43.992;2024-03-17T03:34:39;101167.56;;;-2.41;66.49
69247;BME280;56358;56.328;43.992;2024-03-17T03:36:40;101167.56;;;-2.40;66.70
69247;BME280;56358;56.328;43.992;2024-03-17T03:38:42;101183.31;;;-2.40;67.37
69247;BME280;56358;56.328;43.992;2024-03-17T03:40:43;101124.19;;;-2.70;66.40
69247;BME280;56358;56.328;43.992;2024-03-17T03:42:45;101157.19;;;-2.49;66.55
69247;BME280;56358;56.328;43.992;2024-03-17T03:44:46;101086.81;;;-2.88;66.88
69247;BME280;56358;56.328;43.992;2024-03-17T03:46:49;101152.78;;;-2.48;66.80
69247;BME280;56358;56.328;43.992;2024-03-17T03:48:50;101196.22;;;-2.23;66.54
69247;BME280;56358;56.328;43.992;2024-03-17T03:50:50;101145.72;;;-2.43;67.05
69247;BME280;56358;56.328;43.992;2024-03-17T03:52:51;101178.69;;;-2.21;66.74
69247;BME280;56358;56.328;43.992;2024-03-17T03:54:52;101151.69;;;-2.32;66.96
69247;BME280;56358;56.328;43.992;2024-03-17T03:56:55;101167.22;;;-2.15;66.57
69247;BME280;56358;56.328;43.992;2024-03-17T03:58:55;101158.53;;;-2.20;66.86
69247;BME280;56358;56.328;43.992;2024-03-17T04:00:56;101120.22;;;-2.35;66.35
69247;BME280;56358;56.328;43.992;2024-03-17T04:02:58;101168.09;;;-2.13;66.31
69247;BME280;56358;56.328;43.992;2024-03-17T04:04:58;101150.69;;;-2.22;66.82
69247;BME280;56358;56.328;43.992;2024-03-17T04:06:59;101068.13;;;-2.66;66.72
69247;BME280;56358;56.328;43.992;2024-03-17T04:09:00;101167.19;;;-2.13;66.49
69247;BME280;56358;56.328;43.992;2024-03-17T04:11:01;101161.97;;;-2.15;67.05
69247;BME280;56358;56.328;43.992;2024-03-17T04:13:03;101162.81;;;-2.13;67.17
69247;BME280;56358;56.328;43.992;2024-03-17T04:15:04;101129.72;;;-2.25;67.05
69247;BME280;56358;56.328;43.992;2024-03-17T04:17:06;101135.84;;;-2.26;67.08
69247;BME280;56358;56.328;43.992;2024-03-17T04:19:07;101163.44;;;-1.95;67.01
69247;BME280;56358;56.328;43.992;2024-03-17T04:21:09;101148.66;;;-2.04;66.60
69247;BME280;56358;56.328;43.992;2024-03-17T04:23:09;101083.53;;;-2.40;66.57
69247;BME280;56358;56.328;43.992;2024-03-17T04:25:13;101145.97;;;-1.98;66.58
69247;BME280;56358;56.328;43.992;2024-03-17T04:27:14;101141.59;;;-1.99;66.15
69247;BME280;56358;56.328;43.992;2024-03-17T04:29:14;101149.31;;;-1.88;66.38
69247;BME280;56358;56.328;43.992;2024-03-17T04:31:15;101064.28;;;-2.42;66.39
69247;BME280;56358;56.328;43.992;2024-03-17T04:33:16;101157.06;;;-1.80;66.64
69247;BME280;56358;56.328;43.992;2024-03-17T04:35:19;101157.00;;;-1.76;66.11
69247;BME280;56358;56.328;43.992;2024-03-17T04:37:20;101169.19;;;-1.70;65.53
69247;BME280;56358;56.328;43.992;2024-03-17T04:39:21;101161.13;;;-1.59;65.71
69247;BME280;56358;56.328;43.992;2024-03-17T04:41:22;101168.06;;;-1.55;65.70
69247;BME280;56358;56.328;43.992;2024-03-17T04:43:22;101139.19;;;-1.60;65.79
69247;BME280;56358;56.328;43.992;2024-03-17T04:45:23;101159.09;;;-1.43;65.66
69247;BME280;56358;56.328;43.992;2024-03-17T04:47:24;101157.31;;;-1.41;65.52
69247;BME280;56358;56.328;43.992;2024-03-17T04:49:24;101131.09;;;-1.47;65.35
69247;BME280;56358;56.328;43.992;2024-03-17T04:51:25;101152.91;;;-1.39;64.95
69247;BME280;56358;56.328;43.992;2024-03-17T04:53:26;101141.53;;;-1.41;64.77
69247;BME280;56358;56.328;43.992;2024-03-17T04:55:28;101135.69;;;-1.59;64.54
69247;BME280;56358;56.328;43.992;2024-03-17T04:57:29;101158.78;;;-1.26;64.73
69247;BME280;56358;56.328;43.992;2024-03-17T04:59:33;101166.75;;;-1.29;64.69
69247;BME280;56358;56.328;43.992;2024-03-17T05:01:34;101167.41;;;-1.18;64.88
69247;BME280;56358;56.328;43.992;2024-03-17T05:03:36;101141.31;;;-1.30;64.66
69247;BME280;56358;56.328;43.992;2024-03-17T05:05:37;101156.81;;;-1.13;64.75
69247;BME280;56358;56.328;43.992;2024-03-17T05:07:38;101156.69;;;-1.06;64.19
69247;BME280;56358;56.328;43.992;2024-03-17T05:09:39;101158.44;;;-1.08;63.58
69247;BME280;56358;56.328;43.992;2024-03-17T05:11:40;101081.03;;;-1.41;63.23
69247;BME280;56358;56.328;43.992;2024-03-17T05:13:41;101144.19;;;-0.96;63.38
69247;BME280;56358;56.328;43.992;2024-03-17T05:15:41;101144.97;;;-0.91;62.83
69247;BME280;56358;56.328;43.992;2024-03-17T05:17:42;101170.19;;;-0.80;62.83
69247;BME280;56358;56.328;43.992;2024-03-17T05:19:43;101158.75;;;-0.78;62.51
69247;BME280;56358;56.328;43.992;2024-03-17T05:21:44;101135.38;;;-0.93;62.74
69247;BME280;56358;56.328;43.992;2024-03-17T05:23:45;101158.59;;;-0.70;62.67
69247;BME280;56358;56.328;43.992;2024-03-17T05:25:51;101176.88;;;-0.62;62.46
69247;BME280;56358;56.328;43.992;2024-03-17T05:27:52;101097.72;;;-0.97;61.61
69247;BME280;56358;56.328;43.992;2024-03-17T05:29:53;101164.41;;;-0.54;62.03
69247;BME280;56358;56.328;43.992;2024-03-17T05:31:53;101152.06;;;-0.51;61.56
69247;BME280;56358;56.328;43.992;2024-03-17T05:33:54;101168.53;;;-0.41;61.78
69247;BME280;56358;56.328;43.992;2024-03-17T05:35:57;101137.88;;;-0.45;61.66
69247;BME280;56358;56.328;43.992;2024-03-17T05:37:58;101173.50;;;-0.27;61.54
69247;BME280;56358;56.328;43.992;2024-03-17T05:39:58;101011.19;;;-1.14;61.15
69247;BME280;56358;56.328;43.992;2024-03-17T05:41:59;101164.41;;;-0.12;60.62
69247;BME280;56358;56.328;43.992;2024-03-17T05:44:01;101165.13;;;-0.07;60.46
69247;BME280;56358;56.328;43.992;2024-03-17T05:46:08;101058.22;;;-0.55;60.03
69247;BME280;56358;56.328;43.992;2024-03-17T05:48:09;101137.97;;;-0.09;60.22
69247;BME280;56358;56.328;43.992;2024-03-17T05:50:10;100994.91;;;-0.89;59.90
69247;BME280;56358;56.328;43.992;2024-03-17T05:52:12;101153.31;;;0.11;60.41
69247;BME280;56358;56.328;43.992;2024-03-17T05:54:13;101164.47;;;0.23;59.83
69247;BME280;56358;56.328;43.992;2024-03-17T05:56:14;101157.31;;;0.28;59.78
69247;BME280;56358;56.328;43.992;2024-03-17T05:58:17;101138.03;;;0.26;59.73
69247;BME280;56358;56.328;43.992;2024-03-17T06:00:18;101068.59;;;-0.09;59.87
69247;BME280;56358;56.328;43.992;2024-03-17T06:02:19;101147.38;;;0.39;60.11
69247;BME280;56358;56.328;43.992;2024-03-17T06:04:20;101163.75;;;0.52;59.58
69247;BME280;56358;56.328;43.992;2024-03-17T06:06:20;101137.59;;;0.43;59.60
69247;BME280;56358;56.328;43.992;2024-03-17T06:08:22;101170.53;;;0.62;59.03
69247;BME280;56358;56.328;43.992;2024-03-17T06:10:24;101154.56;;;0.69;59.23
69247;BME280;56358;56.328;43.992;2024-03-17T06:12:27;101164.22;;;0.68;58.89
69247;BME280;56358;56.328;43.992;2024-03-17T06:14:28;101162.25;;;0.78;58.73
69247;BME280;56358;56.328;43.992;2024-03-17T06:16:28;101148.09;;;0.80;58.15
69247;BME280;56358;56.328;43.992;2024-03-17T06:18:29;101114.25;;;0.62;58.26
69247;BME280;56358;56.328;43.992;2024-03-17T06:20:30;101125.38;;;0.73;57.84
69247;BME280;56358;56.328;43.992;2024-03-17T06:22:30;101047.28;;;0.33;58.23
69247;BME280;56358;56.328;43.992;2024-03-17T06:24:31;101145.88;;;0.98;57.94
69247;BME280;56358;56.328;43.992;2024-03-17T06:26:32;101157.22;;;1.00;57.90
69247;BME280;56358;56.328;43.992;2024-03-17T06:28:34;101145.66;;;1.04;57.61
69247;BME280;56358;56.328;43.992;2024-03-17T06:30:35;101151.75;;;1.08;58.10
69247;BME280;56358;56.328;43.992;2024-03-17T06:32:37;101149.31;;;1.00;57.08
69247;BME280;56358;56.328;43.992;2024-03-17T06:34:38;101148.91;;;1.15;56.89
69247;BME280;56358;56.328;43.992;2024-03-17T06:36:38;101050.75;;;0.68;57.24
69247;BME280;56358;56.328;43.992;2024-03-17T06:38:39;101148.44;;;1.31;56.80
69247;BME280;56358;56.328;43.992;2024-03-17T06:40:40;101135.19;;;1.32;56.53
69247;BME280;56358;56.328;43.992;2024-03-17T06:42:41;101079.88;;;0.96;56.33
69247;BME280;56358;56.328;43.992;2024-03-17T06:44:42;101142.78;;;1.43;56.10
69247;BME280;56358;56.328;43.992;2024-03-17T06:46:42;101080.97;;;1.19;56.11
69247;BME280;56358;56.328;43.992;2024-03-17T06:48:44;101119.97;;;1.42;55.89
69247;BME280;56358;56.328;43.992;2024-03-17T06:50:46;101137.03;;;1.60;55.84
69247;BME280;56358;56.328;43.992;2024-03-17T06:52:47;101127.56;;;1.53;55.27
69247;BME280;56358;56.328;43.992;2024-03-17T06:54:47;101141.41;;;1.61;55.50
69247;BME280;56358;56.328;43.992;2024-03-17T06:56:51;101136.63;;;1.74;55.28
69247;BME280;56358;56.328;43.992;2024-03-17T06:58:52;101035.97;;;1.24;55.04
69247;BME280;56358;56.328;43.992;2024-03-17T07:00:58;101120.66;;;1.77;54.83
69247;BME280;56358;56.328;43.992;2024-03-17T07:02:59;101132.69;;;1.88;54.35
69247;BME280;56358;56.328;43.992;2024-03-17T07:05:00;101120.50;;;1.82;54.80
69247;BME280;56358;56.328;43.992;2024-03-17T07:07:03;101130.72;;;1.94;54.13
69247;BME280;56358;56.328;43.992;2024-03-17T07:09:04;101134.06;;;1.99;53.63
69247;BME280;56358;56.328;43.992;2024-03-17T07:11:06;101133.75;;;2.09;54.05
69247;BME280;56358;56.328;43.992;2024-03-17T07:13:07;101130.06;;;2.14;53.89
69247;BME280;56358;56.328;43.992;2024-03-17T07:15:08;101131.59;;;2.22;53.95
69247;BME280;56358;56.328;43.992;2024-03-17T07:17:09;101136.03;;;2.21;52.93
69247;BME280;56358;56.328;43.992;2024-03-17T07:19:10;101125.47;;;2.20;53.87
69247;BME280;56358;56.328;43.992;2024-03-17T07:21:10;101136.78;;;2.25;53.82
69247;BME280;56358;56.328;43.992;2024-03-17T07:23:11;101110.38;;;2.23;53.64
69247;BME280;56358;56.328;43.992;2024-03-17T07:25:12;101111.28;;;2.22;53.87
69247;BME280;56358;56.328;43.992;2024-03-17T07:27:13;101135.38;;;2.41;53.70
69247;BME280;56358;56.328;43.992;2024-03-17T07:29:15;101132.63;;;2.44;54.11
69247;BME280;56358;56.328;43.992;2024-03-17T07:31:16;101096.00;;;2.32;54.24
69247;BME280;56358;56.328;43.992;2024-03-17T07:33:17;101086.09;;;2.37;53.92
69247;BME280;56358;56.328;43.992;2024-03-17T07:35:17;101125.88;;;2.61;54.04
69247;BME280;56358;56.328;43.992;2024-03-17T07:37:18;101086.97;;;2.38;53.90
69247;BME280;56358;56.328;43.992;2024-03-17T07:39:19;101011.91;;;1.88;54.28
69247;BME280;56358;56.328;43.992;2024-03-17T07:41:20;101122.16;;;2.66;54.11
69247;BME280;56358;56.328;43.992;2024-03-17T07:43:21;101117.69;;;2.68;53.78
69247;BME280;56358;56.328;43.992;2024-03-17T07:45:21;101122.13;;;2.68;53.79
69247;BME280;56358;56.328;43.992;2024-03-17T07:47:22;101109.09;;;2.62;53.51
69247;BME280;56358;56.328;43.992;2024-03-17T07:49:23;101119.34;;;2.71;53.79
69247;BME280;56358;56.328;43.992;2024-03-17T07:51:23;101117.78;;;2.65;53.75
69247;BME280;56358;56.328;43.992;2024-03-17T07:53:24;101123.69;;;2.74;53.52
69247;BME280;56358;56.328;43.992;2024-03-17T07:55:25;101123.44;;;2.80;53.25
69247;BME280;56358;56.328;43.992;2024-03-17T07:57:26;101121.63;;;2.82;53.22
69247;BME280;56358;56.328;43.992;2024-03-17T07:59:27;101122.28;;;2.89;53.04
69247;BME280;56358;56.328;43.992;2024-03-17T08:01:29;101118.75;;;2.88;53.18
69247;BME280;56358;56.328;43.992;2024-03-17T08:03:31;101102.97;;;2.85;52.65
69247;BME280;56358;56.328;43.992;2024-03-17T08:05:31;101130.47;;;3.06;52.23
69247;BME280;56358;56.328;43.992;2024-03-17T08:07:32;101044.84;;;2.57;52.17
69247;BME280;56358;56.328;43.992;2024-03-17T08:09:33;101099.06;;;2.95;51.79
69247;BME280;56358;56.328;43.992;2024-03-17T08:11:34;101112.22;;;3.22;51.64
69247;BME280;56358;56.328;43.992;2024-03-17T08:13:35;101118.38;;;3.23;51.28
69247;BME280;56358;56.328;43.992;2024-03-17T08:15:37;101111.81;;;3.33;50.33
69247;BME280;56358;56.328;43.992;2024-03-17T08:17:38;101094.44;;;3.26;50.13
69247;BME280;56358;56.328;43.992;2024-03-17T08:19:38;101093.50;;;3.27;50.41
69247;BME280;56358;56.328;43.992;2024-03-17T08:21:39;101041.22;;;3.08;50.36
69247;BME280;56358;56.328;43.992;2024-03-17T08:23:40;101101.63;;;3.46;50.07
69247;BME280;56358;56.328;43.992;2024-03-17T08:25:55;101097.69;;;3.56;49.40
69247;BME280;56358;56.328;43.992;2024-03-17T08:27:56;100987.19;;;2.89;49.57
69247;BME280;56358;56.328;43.992;2024-03-17T08:29:56;101084.84;;;3.45;49.93
69247;BME280;56358;56.328;43.992;2024-03-17T08:31:57;101098.56;;;3.57;49.58
69247;BME280;56358;56.328;43.992;2024-03-17T08:33:59;101054.53;;;3.52;50.26
69247;BME280;56358;56.328;43.992;2024-03-17T08:36:03;101090.81;;;3.74;50.09
69247;BME280;56358;56.328;43.992;2024-03-17T08:38:04;101068.97;;;3.67;49.87
69247;BME280;56358;56.328;43.992;2024-03-17T08:40:06;101071.38;;;3.74;49.88
69247;BME280;56358;56.328;43.992;2024-03-17T08:42:07;101025.47;;;3.49;50.00
69247;BME280;56358;56.328;43.992;2024-03-17T08:44:08;101083.72;;;3.97;49.88
69247;BME280;56358;56.328;43.992;2024-03-17T08:46:10;101100.56;;;4.18;48.47
69247;BME280;56358;56.328;43.992;2024-03-17T08:48:10;101089.00;;;4.19;48.08
69247;BME280;56358;56.328;43.992;2024-03-17T08:50:11;100960.16;;;3.48;47.73
69247;BME280;56358;56.328;43.992;2024-03-17T08:52:13;101078.34;;;4.41;46.50
69247;BME280;56358;56.328;43.992;2024-03-17T08:54:13;101094.59;;;4.95;44.58
69247;BME280;56358;56.328;43.992;2024-03-17T08:56:14;101012.22;;;4.95;43.23
69247;BME280;56358;56.328;43.992;2024-03-17T08:58:15;101101.03;;;5.67;41.73
69247;BME280;56358;56.328;43.992;2024-03-17T09:00:16;101022.19;;;5.47;41.31
69247;BME280;56358;56.328;43.992;2024-03-17T09:02:17;101095.19;;;6.16;40.51
69247;BME280;56358;56.328;43.992;2024-03-17T09:04:18;101021.47;;;5.99;38.78
69247;BME280;56358;56.328;43.992;2024-03-17T09:06:18;101095.84;;;6.57;39.58
69247;BME280;56358;56.328;43.992;2024-03-17T09:08:21;101078.28;;;6.70;38.76
69247;BME280;56358;56.328;43.992;2024-03-17T09:10:22;101061.03;;;6.60;38.23
69247;BME280;56358;56.328;43.992;2024-03-17T09:12:25;101010.81;;;6.52;38.31
69247;BME280;56358;56.328;43.992;2024-03-17T09:14:26;101085.84;;;7.11;37.88
69247;BME280;56358;56.328;43.992;2024-03-17T09:16:27;101084.34;;;7.23;37.02
69247;BME280;56358;56.328;43.992;2024-03-17T09:18:32;101085.75;;;7.78;37.16
69247;BME280;56358;56.328;43.992;2024-03-17T09:20:33;101068.56;;;8.14;36.90
69247;BME280;56358;56.328;43.992;2024-03-17T09:22:33;101038.63;;;8.23;36.14
69247;BME280;56358;56.328;43.992;2024-03-17T09:24:34;101087.06;;;8.64;35.83
69247;BME280;56358;56.328;43.992;2024-03-17T09:26:35;101084.63;;;9.04;35.74
69247;BME280;56358;56.328;43.992;2024-03-17T09:28:36;101066.09;;;9.01;33.30
69247;BME280;56358;56.328;43.992;2024-03-17T09:30:37;101079.88;;;9.38;34.33
69247;BME280;56358;56.328;43.992;2024-03-17T09:32:38;101077.47;;;9.75;33.67
69247;BME280;56358;56.328;43.992;2024-03-17T09:34:39;101071.09;;;10.05;32.45
69247;BME280;56358;56.328;43.992;2024-03-17T09:36:39;101078.19;;;10.19;32.24
69247;BME280;56358;56.328;43.992;2024-03-17T09:38:40;101074.06;;;10.28;32.13
69247;BME280;56358;56.328;43.992;2024-03-17T09:40:46;101083.31;;;10.09;31.11
69247;BME280;56358;56.328;43.992;2024-03-17T09:42:47;101061.06;;;10.21;31.43
69247;BME280;56358;56.328;43.992;2024-03-17T09:44:48;101057.53;;;9.94;32.05
69247;BME280;56358;56.328;43.992;2024-03-17T09:46:52;101054.69;;;10.10;32.54
69247;BME280;56358;56.328;43.992;2024-03-17T09:48:53;101059.66;;;10.29;32.58
69247;BME280;56358;56.328;43.992;2024-03-17T09:50:57;100997.03;;;10.04;32.31
69247;BME280;56358;56.328;43.992;2024-03-17T09:52:59;101052.97;;;10.36;30.99
69247;BME280;56358;56.328;43.992;2024-03-17T09:55:08;101049.56;;;10.47;30.58
69247;BME280;56358;56.328;43.992;2024-03-17T09:57:16;101053.41;;;10.15;30.55
69247;BME280;56358;56.328;43.992;2024-03-17T09:59:17;101026.94;;;10.11;30.83
69247;BME280;56358;56.328;43.992;2024-03-17T10:01:18;101024.81;;;10.29;30.75
69247;BME280;56358;56.328;43.992;2024-03-17T10:03:50;101041.97;;;10.53;29.83
69247;BME280;56358;56.328;43.992;2024-03-17T10:06:25;101047.00;;;10.58;30.17
69247;BME280;56358;56.328;43.992;2024-03-17T10:08:27;101032.13;;;10.80;30.50
69247;BME280;56358;56.328;43.992;2024-03-17T10:10:28;101044.22;;;10.85;29.57
69247;BME280;56358;56.328;43.992;2024-03-17T10:12:29;101039.25;;;11.05;29.22
69247;BME280;56358;56.328;43.992;2024-03-17T10:14:30;101029.94;;;11.11;28.94
69247;BME280;56358;56.328;43.992;2024-03-17T10:16:32;101023.38;;;11.15;28.82
69247;BME280;56358;56.328;43.992;2024-03-17T10:18:33;101000.34;;;10.73;30.00
69247;BME280;56358;56.328;43.992;2024-03-17T10:20:34;101020.81;;;10.49;31.45
69247;BME280;56358;56.328;43.992;2024-03-17T10:22:36;101027.34;;;10.45;30.85
69247;BME280;56358;56.328;43.992;2024-03-17T10:24:37;101005.84;;;10.06;30.56
69247;BME280;56358;56.328;43.992;2024-03-17T10:26:44;101015.38;;;10.10;32.05
69247;BME280;56358;56.328;43.992;2024-03-17T10:28:47;101027.91;;;10.10;32.09